ADDS METAR Data INFO
IDs: Format: Raw Decoded Include TAF

Data at: 0749 UTC 21 Jul 2018

PAMC 210653Z AUTO 23005KT 10SM CLR 23/11 A3020 RMK AO2 SLP228 T02280106 TSNO
PAMC 210553Z AUTO 22007KT 10SM CLR 24/09 A3019 RMK AO2 SLP225 T02440089 10267 20244 53003 TSNO
PAMC 210453Z AUTO 20007KT 10SM CLR 26/07 A3018 RMK AO2 SLP222 T02560072 TSNO
PAMC 210353Z AUTO 22008KT 10SM CLR 26/09 A3018 RMK AO2 SLP222 T02610089 TSNO
PAMC 210253Z AUTO 18008KT 10SM CLR 27/09 A3018 RMK AO2 SLP223 T02670094 56007 TSNO
PAMC 210153Z 22007KT 10SM SCT060 27/09 A3019 RMK AO2 SLP225 T02670094
PAMC 210053Z 22004KT 10SM SCT060 26/11 A3019 RMK AO2 SLP226 T02610106
PAMC 202353Z 22007KT 10SM SCT050 26/11 A3020 RMK AO2 SLP230 T02610111 10261 20172 58008
PAMC 202253Z 00000KT 10SM SCT060 25/11 A3021 RMK AO2 SLP234 T02500111
PAMC 202153Z VRB05KT 10SM CLR 24/10 A3022 RMK AO2 SLP236 T02390100
PAMC 202053Z 00000KT 10SM CLR 23/12 A3023 RMK AO2 SLP237 T02280122 56008
PAMC 201953Z VRB04KT 10SM CLR 21/13 A3023 RMK AO2 SLP239 T02110128
PAMC 201853Z 06003KT 10SM CLR 19/12 A3024 RMK AO2 SLP242 T01940122
PAMC 201753Z 05003KT 10SM CLR 17/12 A3025 RMK AO2 SLP246 T01720117 10172 20094 50000
PAMC 201653Z AUTO 00000KT 10SM CLR 14/11 A3025 RMK AO2 SLP246 T01440106 TSNO
PAMC 201553Z AUTO 00000KT 10SM CLR 12/09 A3025 RMK AO2 SLP247 T01170094 TSNO
PAMC 201353Z AUTO 00000KT 10SM BKN055 10/09 A3025 RMK AO2 SLP247 T01000094 TSNO
PAMC 201253Z AUTO 28004KT 10SM CLR 11/09 A3025 RMK AO2 SLP246 T01060094 TSNO
PAMC 201153Z AUTO 27004KT 10SM CLR 12/11 A3025 RMK AO2 SLP245 T01170106 10206 20111 51007 TSNO
PAMC 201053Z AUTO 27006KT 10SM CLR 13/11 A3024 RMK AO2 SLP243 T01280111 TSNO
PAMC 200953Z AUTO 34003KT 10SM CLR 14/11 A3023 RMK AO2 SLP241 T01440111 TSNO
PAMC 200853Z AUTO 01004KT 10SM CLR 16/11 A3022 RMK AO2 SLP237 T01610111 402560100 53012 TSNO
PAMC 200753Z AUTO 35006KT 10SM CLR 17/11 A3021 RMK AO2 SLP231 T01720111 TSNO
PAMC 200653Z AUTO 36005KT 10SM CLR 19/12 A3020 RMK AO2 SLP228 T01890117 TSNO
PAMC 200553Z AUTO 01007KT 10SM CLR 21/12 A3019 RMK AO2 SLP225 T02060117 10256 20206 53009 TSNO
PAMC 200453Z AUTO 01006KT 10SM CLR 22/12 A3018 RMK AO2 SLP221 T02220117 TSNO
PAMC 200353Z AUTO 35006KT 10SM CLR 23/12 A3017 RMK AO2 SLP219 T02330117 TSNO
PAMC 200253Z AUTO VRB05KT 10SM FEW060 25/12 A3016 RMK AO2 SLP216 T02500117 56004 TSNO
PAMC 200153Z VRB03KT 10SM SCT060 24/11 A3016 RMK AO2 SLP217 T02440111
PAMC 200053Z 28007KT 10SM SCT060 24/09 A3017 RMK AO2 SLP219 T02390089
PAMC 192353Z 27008KT 10SM FEW060 24/09 A3017 RMK AO2 SLP220 T02440089 10244 20167 58004
PAMC 192253Z 23005KT 10SM SCT055 23/09 A3018 RMK AO2 SLP222 T02330089
PAMC 192153Z VRB05KT 10SM BKN040 23/10 A3018 RMK AO2 SLP223 T02280100
PAMC 192053Z 20005KT 10SM BKN039 21/11 A3019 RMK AO2 SLP225 T02110111 56003
PAMC 191953Z 00000KT 10SM CLR 21/13 A3019 RMK AO2 SLP225 T02110128